WetterOnline ( https://www.wetteronline.de )

Wetter aktuell Fehmarn

Aktuelles Wetter: Westermarkelsdorf (9m)

6-stündlich | Neueste Meldungen
Ortszeit Temperatur Wetter
So, 26.06. 8:00 19.7° C bewölkt
So, 26.06. 2:00 19.3° C bedeckt
Sa, 25.06. 20:00 23.5° C wolkenlos
Sa, 25.06. 14:00 22.6° C fast wolkenlos
Sa, 25.06. 8:00 18.9° C bedeckt
Sa, 25.06. 2:00 19.5° C leicht bewölkt
Fr, 24.06. 20:00 20.8° C bedeckt
Fr, 24.06. 14:00 27.6° C wolkenlos
Ortszeit Temperatur Wetter
So, 26.06. 13:30 28.5° C leicht bewölkt
So, 26.06. 13:20 28.5° C leicht bewölkt
So, 26.06. 13:10 27.5° C wolkig
So, 26.06. 13:00 27.3° C leicht bewölkt
So, 26.06. 12:50 27.3° C leicht bewölkt
So, 26.06. 12:40 27.1° C bedeckt
So, 26.06. 12:30 26.0° C wolkig
So, 26.06. 12:00 25.6° C bewölkt
So, 26.06. 11:30 25.1° C wolkig
So, 26.06. 11:00 23.9° C bedeckt
So, 26.06. 10:30 23.8° C bewölkt
Ortszeit Relative Feuchte Sichtweite
So, 26.06. 8:00 88% 20 km
So, 26.06. 2:00 93% 19 km
Sa, 25.06. 20:00 65% 50 km
Sa, 25.06. 14:00 74% 35 km
Sa, 25.06. 8:00 92% 21 km
Sa, 25.06. 2:00 87% 50 km
Fr, 24.06. 20:00 81% 45 km
Fr, 24.06. 14:00 50% 45 km
Ortszeit Relative Feuchte Sichtweite
So, 26.06. 13:30 52% 50 km
So, 26.06. 13:20 52% -
So, 26.06. 13:10 58% -
So, 26.06. 13:00 63% 45 km
So, 26.06. 12:50 63% -
So, 26.06. 12:40 64% -
So, 26.06. 12:30 68% 45 km
So, 26.06. 12:00 71% 50 km
So, 26.06. 11:30 73% 35 km
So, 26.06. 11:00 77% 30 km
So, 26.06. 10:30 75% 30 km
Ortszeit Niederschlagsmenge Niederschlagsart
So, 26.06. 8:00 0.1 l/m2 in 12 Std. Regen
So, 26.06. 2:00 0.0 l/m2 in 6 Std. -
Sa, 25.06. 20:00 0.1 l/m2 in 12 Std. -
Sa, 25.06. 14:00 0.1 l/m2 in 6 Std. Sprühregen
Sa, 25.06. 8:00 0.1 l/m2 in 12 Std. -
Sa, 25.06. 2:00 0.1 l/m2 in 6 Std. Regen
Fr, 24.06. 20:00 0.0 l/m2 in 12 Std. -
Fr, 24.06. 14:00 0.0 l/m2 in 6 Std. -
Ortszeit Niederschlagsmenge Niederschlagsart
So, 26.06. 13:30 0.0 l/m2 in 1 Std. -
So, 26.06. 13:20 keine Meldung -
So, 26.06. 13:10 keine Meldung -
So, 26.06. 13:00 0.0 l/m2 in 1 Std. -
So, 26.06. 12:50 keine Meldung -
So, 26.06. 12:40 keine Meldung -
So, 26.06. 12:30 0.0 l/m2 in 1 Std. -
So, 26.06. 12:00 0.0 l/m2 in 1 Std. -
So, 26.06. 11:30 0.0 l/m2 in 1 Std. -
So, 26.06. 11:00 0.0 l/m2 in 1 Std. -
So, 26.06. 10:30 0.0 l/m2 in 1 Std. -
Ortszeit Stärke Spitze Richtung
km/h Bft. km/h Grad Sektor
So, 26.06. 8:00 9 2 15 130° SO
So, 26.06. 2:00 4 1 18 50° NO
Sa, 25.06. 20:00 11 2 22 110° O
Sa, 25.06. 14:00 9 2 15 330° NW
Sa, 25.06. 8:00 11 2 22 350° N
Sa, 25.06. 2:00 13 3 28 290° W
Fr, 24.06. 20:00 18 3 43 320° NW
Fr, 24.06. 14:00 30 5 46 110° O
Ortszeit Stärke Spitze Richtung
km/h Bft. km/h Grad Sektor
So, 26.06. 13:30 9 2 15 260° W
So, 26.06. 13:20 9 2 - 260° W
So, 26.06. 13:10 7 2 - 210° SW
So, 26.06. 13:00 7 2 18 170° S
So, 26.06. 12:50 7 2 - 170° S
So, 26.06. 12:40 7 2 - 170° S
So, 26.06. 12:30 9 2 19 150° SO
So, 26.06. 12:00 11 2 22 160° S
So, 26.06. 11:30 11 2 22 160° S
So, 26.06. 11:00 13 3 20 150° SO
So, 26.06. 10:30 11 2 22 140° SO
Ortszeit Untergrenze Bedeckung Gattung
total tief tief mittel hoch
So, 26.06. 8:00 2700 m 8/8 4/8 - - -
So, 26.06. 2:00 3300 m 8/8 8/8 - - -
Sa, 25.06. 20:00 - 0/8 0/8 - - -
Sa, 25.06. 14:00 1440 m 1/8 1/8 - - -
Sa, 25.06. 8:00 3300 m 8/8 8/8 - - -
Sa, 25.06. 2:00 2700 m 3/8 3/8 - - -
Fr, 24.06. 20:00 3900 m 8/8 8/8 - - -
Fr, 24.06. 14:00 - 0/8 0/8 - - -
Ortszeit Bedeckungsgrad in Achtel und Wolkenuntergrenze
So, 26.06. 13:30 3(8700m) 6(9000m)
So, 26.06. 13:20 3(8700m) 6(9000m)
So, 26.06. 13:10 6
So, 26.06. 13:00 3(2700m) 5(6900m) 5(8400m)
So, 26.06. 12:50 3(2700m) 5(6900m) 5(8400m)
So, 26.06. 12:40 8
So, 26.06. 12:30 5(6900m) 7(8100m) 7(9000m)
So, 26.06. 12:00 6(2700m) 7(6900m)
So, 26.06. 11:30 3(2700m) 7(6600m) 7(8400m)
So, 26.06. 11:00 8(6600m)
So, 26.06. 10:30 6(6900m) 7(7500m)
Ortszeit Luftdruck NN (hPa) Tendenz (hPa in 3 Std.)
So, 26.06. 8:00 1014 + 0,6
So, 26.06. 2:00 1013 - 0,4
Sa, 25.06. 20:00 1013 + 0,1
Sa, 25.06. 14:00 1013 + 0,2
Sa, 25.06. 8:00 1011 + 1,3
Sa, 25.06. 2:00 1008 + 0,8
Fr, 24.06. 20:00 1007 + 0,9
Fr, 24.06. 14:00 1007 - 1,5
Ortszeit Luftdruck NN (hPa) Tendenz (hPa in 3 Std.)
So, 26.06. 13:30 1015 + 0,8
So, 26.06. 13:20 1015 keine Meldung
So, 26.06. 13:10 1014 keine Meldung
So, 26.06. 13:00 1014 + 0,8
So, 26.06. 12:50 1014 keine Meldung
So, 26.06. 12:40 1014 keine Meldung
So, 26.06. 12:30 1014 + 0,7
So, 26.06. 12:00 1014 + 0,6
So, 26.06. 11:30 1014 + 0,6
So, 26.06. 11:00 1014 + 0,4
So, 26.06. 10:30 1014 + 0,3
Ortszeit Schneehöhe (cm)
So, 26.06. 8:00 0
So, 26.06. 2:00 0
Sa, 25.06. 20:00 0
Sa, 25.06. 14:00 0
Sa, 25.06. 8:00 0
Sa, 25.06. 2:00 0
Fr, 24.06. 20:00 0
Fr, 24.06. 14:00 0
Ortszeit Schneehöhe (cm)
So, 26.06. 13:30 0
So, 26.06. 13:20 0
So, 26.06. 13:10 0
So, 26.06. 13:00 0
So, 26.06. 12:50 0
So, 26.06. 12:40 0
So, 26.06. 12:30 0
So, 26.06. 12:00 0
So, 26.06. 11:30 0
So, 26.06. 11:00 0
So, 26.06. 10:30 0
Link zu dieser Seite / Seite empfehlen

Das Wetter in ...